sensor_id;sensor_type;location;lat;lon;timestamp;pressure;altitude;pressure_sealevel;temperature;humidity
21658;BME280;10990;48.174;9.782;2023-04-27T00:01:31;95011.47;;;6.15;100.00
21658;BME280;10990;48.174;9.782;2023-04-27T00:03:59;94991.03;;;6.09;100.00
21658;BME280;10990;48.174;9.782;2023-04-27T00:06:25;94982.06;;;6.11;100.00
21658;BME280;10990;48.174;9.782;2023-04-27T00:08:52;94958.13;;;6.04;100.00
21658;BME280;10990;48.174;9.782;2023-04-27T00:11:19;94933.94;;;6.11;100.00
21658;BME280;10990;48.174;9.782;2023-04-27T00:13:46;94909.88;;;6.25;100.00
21658;BME280;10990;48.174;9.782;2023-04-27T00:16:13;94902.16;;;6.23;100.00
21658;BME280;10990;48.174;9.782;2023-04-27T00:18:41;94901.94;;;5.97;100.00
21658;BME280;10990;48.174;9.782;2023-04-27T00:21:08;94872.34;;;6.05;100.00
21658;BME280;10990;48.174;9.782;2023-04-27T00:23:35;94831.72;;;5.99;100.00
21658;BME280;10990;48.174;9.782;2023-04-27T00:26:02;94817.25;;;5.95;100.00
21658;BME280;10990;48.174;9.782;2023-04-27T00:28:28;94788.06;;;6.08;100.00
21658;BME280;10990;48.174;9.782;2023-04-27T00:30:57;94791.13;;;6.03;100.00
21658;BME280;10990;48.174;9.782;2023-04-27T00:33:26;94777.25;;;6.21;100.00
21658;BME280;10990;48.174;9.782;2023-04-27T00:35:54;94770.63;;;6.17;100.00
21658;BME280;10990;48.174;9.782;2023-04-27T00:38:21;94775.88;;;6.17;100.00
21658;BME280;10990;48.174;9.782;2023-04-27T00:40:47;94783.75;;;6.17;100.00
21658;BME280;10990;48.174;9.782;2023-04-27T00:43:14;94770.44;;;6.28;100.00
21658;BME280;10990;48.174;9.782;2023-04-27T00:45:42;94764.16;;;6.39;100.00
21658;BME280;10990;48.174;9.782;2023-04-27T00:48:09;94777.25;;;6.48;100.00
21658;BME280;10990;48.174;9.782;2023-04-27T00:50:36;94792.38;;;6.37;100.00
21658;BME280;10990;48.174;9.782;2023-04-27T00:53:06;94798.72;;;6.06;100.00
21658;BME280;10990;48.174;9.782;2023-04-27T00:55:33;94767.78;;;6.38;100.00
21658;BME280;10990;48.174;9.782;2023-04-27T00:58:01;94771.09;;;6.40;100.00
21658;BME280;10990;48.174;9.782;2023-04-27T01:00:27;94748.41;;;6.11;100.00
21658;BME280;10990;48.174;9.782;2023-04-27T01:02:54;94735.22;;;5.93;100.00
21658;BME280;10990;48.174;9.782;2023-04-27T01:05:23;94693.03;;;6.04;100.00
21658;BME280;10990;48.174;9.782;2023-04-27T01:07:50;94690.69;;;6.01;100.00
21658;BME280;10990;48.174;9.782;2023-04-27T01:10:20;94685.47;;;5.92;100.00
21658;BME280;10990;48.174;9.782;2023-04-27T01:12:47;94682.47;;;5.49;100.00
21658;BME280;10990;48.174;9.782;2023-04-27T01:15:13;94624.38;;;5.44;100.00
21658;BME280;10990;48.174;9.782;2023-04-27T01:17:40;94598.97;;;5.45;100.00
21658;BME280;10990;48.174;9.782;2023-04-27T01:20:08;94571.88;;;5.54;100.00
21658;BME280;10990;48.174;9.782;2023-04-27T01:22:35;94560.22;;;5.66;100.00
21658;BME280;10990;48.174;9.782;2023-04-27T01:25:04;94559.63;;;5.72;100.00
21658;BME280;10990;48.174;9.782;2023-04-27T01:27:32;94552.91;;;5.88;100.00
21658;BME280;10990;48.174;9.782;2023-04-27T01:29:59;94554.00;;;5.95;100.00
21658;BME280;10990;48.174;9.782;2023-04-27T01:32:26;94557.53;;;5.76;100.00
21658;BME280;10990;48.174;9.782;2023-04-27T01:34:53;94553.63;;;5.80;100.00
21658;BME280;10990;48.174;9.782;2023-04-27T01:37:19;94550.78;;;5.73;100.00
21658;BME280;10990;48.174;9.782;2023-04-27T01:39:46;94565.47;;;5.66;100.00
21658;BME280;10990;48.174;9.782;2023-04-27T01:42:14;94585.63;;;5.38;100.00
21658;BME280;10990;48.174;9.782;2023-04-27T01:44:41;94567.00;;;5.31;100.00
21658;BME280;10990;48.174;9.782;2023-04-27T01:47:08;94545.25;;;5.21;100.00
21658;BME280;10990;48.174;9.782;2023-04-27T01:49:35;94535.44;;;5.23;100.00
21658;BME280;10990;48.174;9.782;2023-04-27T01:52:02;94529.91;;;5.26;100.00
21658;BME280;10990;48.174;9.782;2023-04-27T01:54:29;94546.09;;;5.12;100.00
21658;BME280;10990;48.174;9.782;2023-04-27T01:56:55;94544.34;;;5.12;100.00
21658;BME280;10990;48.174;9.782;2023-04-27T01:59:24;94563.63;;;5.11;100.00
21658;BME280;10990;48.174;9.782;2023-04-27T02:01:51;94644.88;;;5.11;100.00
21658;BME280;10990;48.174;9.782;2023-04-27T02:04:17;94643.50;;;4.98;100.00
21658;BME280;10990;48.174;9.782;2023-04-27T02:06:45;94644.91;;;4.92;100.00
21658;BME280;10990;48.174;9.782;2023-04-27T02:09:12;94628.94;;;4.85;100.00
21658;BME280;10990;48.174;9.782;2023-04-27T02:11:39;94610.84;;;5.02;100.00
21658;BME280;10990;48.174;9.782;2023-04-27T02:14:06;94625.03;;;4.99;100.00
21658;BME280;10990;48.174;9.782;2023-04-27T02:16:34;94633.63;;;4.62;100.00
21658;BME280;10990;48.174;9.782;2023-04-27T02:19:01;94624.81;;;4.63;100.00
21658;BME280;10990;48.174;9.782;2023-04-27T02:21:29;94611.16;;;4.79;100.00
21658;BME280;10990;48.174;9.782;2023-04-27T02:23:55;94617.78;;;4.64;100.00
21658;BME280;10990;48.174;9.782;2023-04-27T02:26:22;94601.78;;;4.77;100.00
21658;BME280;10990;48.174;9.782;2023-04-27T02:28:54;94595.69;;;4.86;100.00
21658;BME280;10990;48.174;9.782;2023-04-27T02:31:22;94607.81;;;4.87;100.00
21658;BME280;10990;48.174;9.782;2023-04-27T02:33:50;94615.69;;;4.77;100.00
21658;BME280;10990;48.174;9.782;2023-04-27T02:36:17;94632.13;;;4.60;100.00
21658;BME280;10990;48.174;9.782;2023-04-27T02:38:43;94625.78;;;4.62;100.00
21658;BME280;10990;48.174;9.782;2023-04-27T02:41:10;94608.28;;;4.63;100.00
21658;BME280;10990;48.174;9.782;2023-04-27T02:43:37;94611.31;;;4.48;100.00
21658;BME280;10990;48.174;9.782;2023-04-27T02:46:05;94590.75;;;4.73;100.00
21658;BME280;10990;48.174;9.782;2023-04-27T02:48:32;94571.25;;;4.95;100.00
21658;BME280;10990;48.174;9.782;2023-04-27T02:51:02;94588.31;;;4.62;100.00
21658;BME280;10990;48.174;9.782;2023-04-27T02:53:28;94570.38;;;4.57;100.00
21658;BME280;10990;48.174;9.782;2023-04-27T02:55:55;94561.56;;;4.39;100.00
21658;BME280;10990;48.174;9.782;2023-04-27T02:58:22;94528.56;;;4.75;100.00
21658;BME280;10990;48.174;9.782;2023-04-27T03:00:52;94529.44;;;5.03;100.00
21658;BME280;10990;48.174;9.782;2023-04-27T03:03:19;94547.69;;;4.95;100.00
21658;BME280;10990;48.174;9.782;2023-04-27T03:05:46;94544.06;;;5.06;100.00
21658;BME280;10990;48.174;9.782;2023-04-27T03:08:15;94551.38;;;5.02;100.00
21658;BME280;10990;48.174;9.782;2023-04-27T03:10:41;94553.19;;;5.02;100.00
21658;BME280;10990;48.174;9.782;2023-04-27T03:13:08;94557.03;;;4.98;100.00
21658;BME280;10990;48.174;9.782;2023-04-27T03:15:35;94553.38;;;4.81;100.00
21658;BME280;10990;48.174;9.782;2023-04-27T03:18:03;94549.25;;;4.78;100.00
21658;BME280;10990;48.174;9.782;2023-04-27T03:20:29;94536.25;;;4.86;100.00
21658;BME280;10990;48.174;9.782;2023-04-27T03:22:57;94537.53;;;4.82;100.00
21658;BME280;10990;48.174;9.782;2023-04-27T03:25:25;94542.13;;;4.61;100.00
21658;BME280;10990;48.174;9.782;2023-04-27T03:27:52;94537.00;;;4.69;100.00
21658;BME280;10990;48.174;9.782;2023-04-27T03:30:21;94524.44;;;4.82;100.00
21658;BME280;10990;48.174;9.782;2023-04-27T03:32:48;94512.84;;;4.85;100.00
21658;BME280;10990;48.174;9.782;2023-04-27T03:35:15;94510.41;;;4.74;100.00
21658;BME280;10990;48.174;9.782;2023-04-27T03:37:44;94505.75;;;4.95;100.00
21658;BME280;10990;48.174;9.782;2023-04-27T03:40:12;94500.44;;;5.14;100.00
21658;BME280;10990;48.174;9.782;2023-04-27T03:42:41;94508.94;;;5.26;100.00
21658;BME280;10990;48.174;9.782;2023-04-27T03:45:08;94518.25;;;5.11;100.00
21658;BME280;10990;48.174;9.782;2023-04-27T03:47:37;94530.47;;;5.20;100.00
21658;BME280;10990;48.174;9.782;2023-04-27T03:50:04;94534.66;;;5.13;100.00
21658;BME280;10990;48.174;9.782;2023-04-27T03:52:31;94534.94;;;5.37;100.00
21658;BME280;10990;48.174;9.782;2023-04-27T03:54:58;94548.06;;;5.37;100.00
21658;BME280;10990;48.174;9.782;2023-04-27T03:57:25;94546.13;;;5.39;100.00
21658;BME280;10990;48.174;9.782;2023-04-27T03:59:54;94547.13;;;5.38;100.00
21658;BME280;10990;48.174;9.782;2023-04-27T04:02:21;94538.75;;;5.53;100.00
21658;BME280;10990;48.174;9.782;2023-04-27T04:04:48;94549.22;;;5.25;100.00
21658;BME280;10990;48.174;9.782;2023-04-27T04:07:16;94528.88;;;5.37;100.00
21658;BME280;10990;48.174;9.782;2023-04-27T04:09:44;94521.66;;;5.49;100.00
21658;BME280;10990;48.174;9.782;2023-04-27T04:12:10;94530.00;;;5.62;100.00
21658;BME280;10990;48.174;9.782;2023-04-27T04:14:38;94552.59;;;5.73;100.00
21658;BME280;10990;48.174;9.782;2023-04-27T04:17:08;94568.31;;;5.73;100.00
21658;BME280;10990;48.174;9.782;2023-04-27T04:19:35;94571.34;;;5.78;100.00
21658;BME280;10990;48.174;9.782;2023-04-27T04:22:02;94580.75;;;5.71;100.00
21658;BME280;10990;48.174;9.782;2023-04-27T04:24:29;94573.53;;;5.55;100.00
21658;BME280;10990;48.174;9.782;2023-04-27T04:26:56;94565.31;;;5.68;100.00
21658;BME280;10990;48.174;9.782;2023-04-27T04:29:23;94559.53;;;5.64;100.00
21658;BME280;10990;48.174;9.782;2023-04-27T04:31:50;94554.78;;;5.77;100.00
21658;BME280;10990;48.174;9.782;2023-04-27T04:34:18;94544.28;;;5.77;100.00
21658;BME280;10990;48.174;9.782;2023-04-27T04:36:45;94538.81;;;5.89;100.00
21658;BME280;10990;48.174;9.782;2023-04-27T04:39:12;94558.41;;;5.67;100.00
21658;BME280;10990;48.174;9.782;2023-04-27T04:41:39;94532.38;;;5.83;100.00
21658;BME280;10990;48.174;9.782;2023-04-27T04:44:06;94519.88;;;5.95;100.00
21658;BME280;10990;48.174;9.782;2023-04-27T04:46:33;94527.97;;;6.01;100.00
21658;BME280;10990;48.174;9.782;2023-04-27T04:49:01;94516.50;;;6.02;100.00
21658;BME280;10990;48.174;9.782;2023-04-27T04:51:29;94519.19;;;6.11;100.00
21658;BME280;10990;48.174;9.782;2023-04-27T04:53:56;94533.59;;;6.06;100.00
21658;BME280;10990;48.174;9.782;2023-04-27T04:56:23;94530.75;;;6.18;100.00
21658;BME280;10990;48.174;9.782;2023-04-27T04:58:52;94529.69;;;6.11;100.00
21658;BME280;10990;48.174;9.782;2023-04-27T05:01:19;94530.44;;;6.21;100.00
21658;BME280;10990;48.174;9.782;2023-04-27T05:03:47;94537.28;;;5.96;100.00
21658;BME280;10990;48.174;9.782;2023-04-27T05:06:13;94517.41;;;6.11;100.00
21658;BME280;10990;48.174;9.782;2023-04-27T05:08:42;94511.03;;;6.32;100.00
21658;BME280;10990;48.174;9.782;2023-04-27T05:11:08;94513.78;;;6.30;100.00
21658;BME280;10990;48.174;9.782;2023-04-27T05:13:35;94516.66;;;6.37;100.00
21658;BME280;10990;48.174;9.782;2023-04-27T05:16:03;94527.38;;;6.25;100.00
21658;BME280;10990;48.174;9.782;2023-04-27T05:18:30;94531.28;;;6.39;100.00
21658;BME280;10990;48.174;9.782;2023-04-27T05:20:57;94529.06;;;6.53;100.00
21658;BME280;10990;48.174;9.782;2023-04-27T05:23:24;94535.69;;;6.57;100.00
21658;BME280;10990;48.174;9.782;2023-04-27T05:25:52;94529.44;;;6.58;100.00
21658;BME280;10990;48.174;9.782;2023-04-27T05:28:19;94548.34;;;6.61;100.00
21658;BME280;10990;48.174;9.782;2023-04-27T05:30:45;94546.00;;;6.76;100.00
21658;BME280;10990;48.174;9.782;2023-04-27T05:33:12;94539.94;;;6.84;100.00
21658;BME280;10990;48.174;9.782;2023-04-27T05:35:39;94536.31;;;6.77;100.00
21658;BME280;10990;48.174;9.782;2023-04-27T05:38:06;94536.56;;;6.65;100.00
21658;BME280;10990;48.174;9.782;2023-04-27T05:40:33;94554.13;;;6.65;100.00
21658;BME280;10990;48.174;9.782;2023-04-27T05:43:01;94561.28;;;6.81;100.00
21658;BME280;10990;48.174;9.782;2023-04-27T05:45:29;94577.78;;;6.91;100.00
21658;BME280;10990;48.174;9.782;2023-04-27T05:47:56;94595.44;;;6.99;100.00
21658;BME280;10990;48.174;9.782;2023-04-27T05:50:23;94640.31;;;7.05;100.00
21658;BME280;10990;48.174;9.782;2023-04-27T05:52:50;94672.81;;;7.22;100.00
21658;BME280;10990;48.174;9.782;2023-04-27T05:55:16;94705.06;;;7.06;100.00
21658;BME280;10990;48.174;9.782;2023-04-27T05:57:43;94708.13;;;7.19;100.00
21658;BME280;10990;48.174;9.782;2023-04-27T06:00:13;94742.63;;;7.16;100.00
21658;BME280;10990;48.174;9.782;2023-04-27T06:02:40;94745.78;;;7.20;100.00
21658;BME280;10990;48.174;9.782;2023-04-27T06:05:08;94768.38;;;7.31;100.00
21658;BME280;10990;48.174;9.782;2023-04-27T06:07:35;94785.50;;;7.53;100.00
21658;BME280;10990;48.174;9.782;2023-04-27T06:10:02;94845.03;;;7.18;100.00
21658;BME280;10990;48.174;9.782;2023-04-27T06:12:29;94865.56;;;7.32;100.00
21658;BME280;10990;48.174;9.782;2023-04-27T06:14:56;94891.50;;;7.45;100.00
21658;BME280;10990;48.174;9.782;2023-04-27T06:17:24;94895.03;;;7.54;100.00
21658;BME280;10990;48.174;9.782;2023-04-27T06:19:51;94902.63;;;7.57;100.00
21658;BME280;10990;48.174;9.782;2023-04-27T06:22:17;94927.97;;;8.12;100.00
21658;BME280;10990;48.174;9.782;2023-04-27T06:24:44;94961.78;;;8.60;100.00
21658;BME280;10990;48.174;9.782;2023-04-27T06:27:11;95020.50;;;8.52;100.00
21658;BME280;10990;48.174;9.782;2023-04-27T06:29:38;95080.03;;;8.27;100.00
21658;BME280;10990;48.174;9.782;2023-04-27T06:32:05;95096.06;;;8.62;100.00
21658;BME280;10990;48.174;9.782;2023-04-27T06:34:33;95166.03;;;8.56;100.00
21658;BME280;10990;48.174;9.782;2023-04-27T06:37:00;95182.75;;;9.01;100.00
21658;BME280;10990;48.174;9.782;2023-04-27T06:39:27;95234.44;;;9.11;100.00
21658;BME280;10990;48.174;9.782;2023-04-27T06:41:54;95258.50;;;9.70;100.00
21658;BME280;10990;48.174;9.782;2023-04-27T06:44:23;95313.41;;;8.95;100.00
21658;BME280;10990;48.174;9.782;2023-04-27T06:46:50;95306.59;;;9.38;100.00
21658;BME280;10990;48.174;9.782;2023-04-27T06:49:17;95339.38;;;9.17;100.00
21658;BME280;10990;48.174;9.782;2023-04-27T06:51:45;95367.22;;;9.30;100.00
21658;BME280;10990;48.174;9.782;2023-04-27T06:54:12;95386.00;;;9.27;100.00
21658;BME280;10990;48.174;9.782;2023-04-27T06:56:39;95434.78;;;8.85;100.00
21658;BME280;10990;48.174;9.782;2023-04-27T06:59:06;95466.31;;;8.77;100.00
21658;BME280;10990;48.174;9.782;2023-04-27T07:01:33;95471.75;;;8.66;100.00
21658;BME280;10990;48.174;9.782;2023-04-27T07:04:00;95464.50;;;8.78;100.00
21658;BME280;10990;48.174;9.782;2023-04-27T07:06:27;95461.44;;;8.82;100.00
21658;BME280;10990;48.174;9.782;2023-04-27T07:08:55;95458.47;;;8.95;100.00
21658;BME280;10990;48.174;9.782;2023-04-27T07:11:22;95462.63;;;8.97;100.00
21658;BME280;10990;48.174;9.782;2023-04-27T07:13:49;95464.25;;;9.18;100.00
21658;BME280;10990;48.174;9.782;2023-04-27T07:16:16;95478.59;;;9.33;100.00
21658;BME280;10990;48.174;9.782;2023-04-27T07:18:43;95481.84;;;9.55;100.00
21658;BME280;10990;48.174;9.782;2023-04-27T07:21:10;95503.06;;;9.63;100.00
21658;BME280;10990;48.174;9.782;2023-04-27T07:23:37;95528.38;;;10.01;100.00
21658;BME280;10990;48.174;9.782;2023-04-27T07:26:05;95554.13;;;9.99;100.00
21658;BME280;10990;48.174;9.782;2023-04-27T07:28:33;95591.88;;;10.37;100.00
21658;BME280;10990;48.174;9.782;2023-04-27T07:31:02;95617.91;;;10.60;100.00
21658;BME280;10990;48.174;9.782;2023-04-27T07:33:29;95653.19;;;10.86;100.00
21658;BME280;10990;48.174;9.782;2023-04-27T07:35:56;95686.75;;;11.04;100.00
21658;BME280;10990;48.174;9.782;2023-04-27T07:38:23;95712.81;;;11.34;100.00
21658;BME280;10990;48.174;9.782;2023-04-27T07:40:50;95738.63;;;10.96;100.00
21658;BME280;10990;48.174;9.782;2023-04-27T07:43:18;95756.09;;;11.07;100.00
21658;BME280;10990;48.174;9.782;2023-04-27T07:45:47;95751.25;;;11.20;100.00
21658;BME280;10990;48.174;9.782;2023-04-27T07:48:14;95769.13;;;11.18;100.00
21658;BME280;10990;48.174;9.782;2023-04-27T07:50:41;95762.00;;;11.19;100.00
21658;BME280;10990;48.174;9.782;2023-04-27T07:53:08;95758.41;;;10.74;100.00
21658;BME280;10990;48.174;9.782;2023-04-27T07:55:34;95742.78;;;10.99;100.00
21658;BME280;10990;48.174;9.782;2023-04-27T07:58:01;95746.84;;;11.65;100.00
21658;BME280;10990;48.174;9.782;2023-04-27T08:00:29;95774.81;;;11.24;100.00
21658;BME280;10990;48.174;9.782;2023-04-27T08:02:56;95785.38;;;11.59;100.00
21658;BME280;10990;48.174;9.782;2023-04-27T08:05:23;95789.16;;;12.45;100.00
21658;BME280;10990;48.174;9.782;2023-04-27T08:07:50;95808.03;;;13.18;100.00
21658;BME280;10990;48.174;9.782;2023-04-27T08:10:18;95838.84;;;13.62;100.00
21658;BME280;10990;48.174;9.782;2023-04-27T08:12:44;95876.28;;;13.26;100.00
21658;BME280;10990;48.174;9.782;2023-04-27T08:15:11;95886.28;;;12.98;100.00
21658;BME280;10990;48.174;9.782;2023-04-27T08:17:40;95886.94;;;12.66;100.00
21658;BME280;10990;48.174;9.782;2023-04-27T08:20:09;95877.16;;;13.35;100.00
21658;BME280;10990;48.174;9.782;2023-04-27T08:22:36;95870.75;;;13.62;100.00
21658;BME280;10990;48.174;9.782;2023-04-27T08:25:04;95885.34;;;12.73;100.00
21658;BME280;10990;48.174;9.782;2023-04-27T08:27:31;95863.03;;;13.34;100.00
21658;BME280;10990;48.174;9.782;2023-04-27T08:29:58;95878.25;;;13.75;100.00
21658;BME280;10990;48.174;9.782;2023-04-27T08:32:26;95890.84;;;15.43;100.00
21658;BME280;10990;48.174;9.782;2023-04-27T08:34:54;95911.94;;;15.53;100.00
21658;BME280;10990;48.174;9.782;2023-04-27T08:37:21;95917.94;;;16.17;100.00
21658;BME280;10990;48.174;9.782;2023-04-27T08:39:48;95923.69;;;16.90;100.00
21658;BME280;10990;48.174;9.782;2023-04-27T08:42:15;95925.53;;;17.19;100.00
21658;BME280;10990;48.174;9.782;2023-04-27T08:44:42;95937.78;;;17.13;100.00
21658;BME280;10990;48.174;9.782;2023-04-27T08:47:09;95935.84;;;17.22;100.00
21658;BME280;10990;48.174;9.782;2023-04-27T08:49:37;95926.28;;;19.01;100.00
21658;BME280;10990;48.174;9.782;2023-04-27T08:52:13;95928.88;;;19.22;100.00
21658;BME280;10990;48.174;9.782;2023-04-27T08:54:40;95930.03;;;19.07;100.00
21658;BME280;10990;48.174;9.782;2023-04-27T08:57:09;95930.53;;;18.24;100.00
21658;BME280;10990;48.174;9.782;2023-04-27T08:59:36;95930.88;;;17.48;100.00
21658;BME280;10990;48.174;9.782;2023-04-27T09:02:03;95919.94;;;19.43;100.00
21658;BME280;10990;48.174;9.782;2023-04-27T09:04:36;95929.72;;;19.23;100.00
21658;BME280;10990;48.174;9.782;2023-04-27T09:07:12;95929.44;;;18.83;100.00
21658;BME280;10990;48.174;9.782;2023-04-27T09:09:38;95936.59;;;18.54;100.00
21658;BME280;10990;48.174;9.782;2023-04-27T09:12:16;95927.75;;;19.03;100.00
21658;BME280;10990;48.174;9.782;2023-04-27T09:14:55;95930.84;;;18.57;100.00
21658;BME280;10990;48.174;9.782;2023-04-27T09:17:24;95936.97;;;18.51;100.00
21658;BME280;10990;48.174;9.782;2023-04-27T09:19:50;95926.88;;;19.31;100.00
21658;BME280;10990;48.174;9.782;2023-04-27T09:22:19;95921.66;;;19.23;100.00
21658;BME280;10990;48.174;9.782;2023-04-27T09:24:49;95925.16;;;19.17;100.00
21658;BME280;10990;48.174;9.782;2023-04-27T09:27:18;95930.09;;;19.89;100.00
21658;BME280;10990;48.174;9.782;2023-04-27T09:29:46;95923.13;;;18.91;100.00
21658;BME280;10990;48.174;9.782;2023-04-27T09:32:13;95918.06;;;19.37;100.00
21658;BME280;10990;48.174;9.782;2023-04-27T09:34:41;95927.91;;;18.09;100.00
21658;BME280;10990;48.174;9.782;2023-04-27T09:37:09;95917.75;;;19.25;100.00
21658;BME280;10990;48.174;9.782;2023-04-27T09:39:37;95918.56;;;18.91;100.00
21658;BME280;10990;48.174;9.782;2023-04-27T09:42:04;95924.88;;;18.77;100.00
21658;BME280;10990;48.174;9.782;2023-04-27T09:44:32;95917.06;;;19.86;100.00
21658;BME280;10990;48.174;9.782;2023-04-27T09:47:00;95918.66;;;19.39;100.00
21658;BME280;10990;48.174;9.782;2023-04-27T09:49:27;95916.78;;;19.68;100.00
21658;BME280;10990;48.174;9.782;2023-04-27T09:51:55;95909.94;;;20.47;100.00
21658;BME280;10990;48.174;9.782;2023-04-27T09:54:25;95911.91;;;19.43;100.00
21658;BME280;10990;48.174;9.782;2023-04-27T09:57:07;95921.22;;;18.85;100.00
21658;BME280;10990;48.174;9.782;2023-04-27T09:59:47;95924.47;;;18.80;100.00
21658;BME280;10990;48.174;9.782;2023-04-27T10:02:22;95922.66;;;17.80;100.00
21658;BME280;10990;48.174;9.782;2023-04-27T10:07:45;95922.56;;;18.09;100.00
21658;BME280;10990;48.174;9.782;2023-04-27T10:10:16;95918.75;;;17.97;100.00
21658;BME280;10990;48.174;9.782;2023-04-27T10:12:55;95925.56;;;16.43;100.00
21658;BME280;10990;48.174;9.782;2023-04-27T10:15:25;95924.16;;;17.38;100.00
21658;BME280;10990;48.174;9.782;2023-04-27T10:17:52;95917.38;;;17.86;100.00
21658;BME280;10990;48.174;9.782;2023-04-27T10:20:27;95922.78;;;18.08;100.00
21658;BME280;10990;48.174;9.782;2023-04-27T10:22:55;95915.47;;;18.02;100.00
21658;BME280;10990;48.174;9.782;2023-04-27T10:25:23;95914.63;;;17.80;100.00
21658;BME280;10990;48.174;9.782;2023-04-27T10:27:53;95929.03;;;17.49;100.00
21658;BME280;10990;48.174;9.782;2023-04-27T10:30:22;95931.00;;;16.04;100.00
21658;BME280;10990;48.174;9.782;2023-04-27T10:32:50;95939.28;;;16.40;100.00
21658;BME280;10990;48.174;9.782;2023-04-27T10:35:18;95925.56;;;16.43;100.00
21658;BME280;10990;48.174;9.782;2023-04-27T10:37:45;95926.03;;;16.24;100.00
21658;BME280;10990;48.174;9.782;2023-04-27T10:40:14;95922.78;;;16.36;100.00
21658;BME280;10990;48.174;9.782;2023-04-27T10:42:42;95932.03;;;16.49;100.00
21658;BME280;10990;48.174;9.782;2023-04-27T10:45:11;95919.81;;;16.69;100.00
21658;BME280;10990;48.174;9.782;2023-04-27T10:47:39;95904.28;;;17.77;100.00
21658;BME280;10990;48.174;9.782;2023-04-27T10:50:08;95921.53;;;17.59;100.00
21658;BME280;10990;48.174;9.782;2023-04-27T10:52:39;95925.25;;;17.14;100.00
21658;BME280;10990;48.174;9.782;2023-04-27T10:55:16;95908.09;;;17.82;100.00
21658;BME280;10990;48.174;9.782;2023-04-27T10:57:47;95909.28;;;18.44;100.00
21658;BME280;10990;48.174;9.782;2023-04-27T11:00:21;95909.25;;;18.16;100.00
21658;BME280;10990;48.174;9.782;2023-04-27T11:02:50;95913.47;;;18.25;100.00
21658;BME280;10990;48.174;9.782;2023-04-27T11:05:18;95905.56;;;17.81;100.00
21658;BME280;10990;48.174;9.782;2023-04-27T11:07:44;95908.41;;;17.43;100.00
21658;BME280;10990;48.174;9.782;2023-04-27T11:10:16;95908.59;;;17.27;100.00
21658;BME280;10990;48.174;9.782;2023-04-27T11:12:44;95907.09;;;17.24;100.00
21658;BME280;10990;48.174;9.782;2023-04-27T11:15:11;95907.75;;;17.26;100.00
21658;BME280;10990;48.174;9.782;2023-04-27T11:17:40;95908.03;;;17.46;100.00
21658;BME280;10990;48.174;9.782;2023-04-27T11:20:08;95909.13;;;17.52;100.00
21658;BME280;10990;48.174;9.782;2023-04-27T11:22:42;95909.84;;;17.45;100.00
21658;BME280;10990;48.174;9.782;2023-04-27T11:25:09;95911.41;;;16.57;100.00
21658;BME280;10990;48.174;9.782;2023-04-27T11:27:37;95910.97;;;16.69;100.00
21658;BME280;10990;48.174;9.782;2023-04-27T11:30:18;95916.97;;;16.10;100.00
21658;BME280;10990;48.174;9.782;2023-04-27T11:32:47;95914.56;;;17.14;100.00
21658;BME280;10990;48.174;9.782;2023-04-27T11:35:15;95911.72;;;17.30;100.00
21658;BME280;10990;48.174;9.782;2023-04-27T11:37:42;95908.63;;;17.48;100.00
21658;BME280;10990;48.174;9.782;2023-04-27T11:40:12;95921.28;;;16.57;100.00
21658;BME280;10990;48.174;9.782;2023-04-27T11:42:40;95916.28;;;16.92;100.00
21658;BME280;10990;48.174;9.782;2023-04-27T11:45:10;95908.03;;;16.87;100.00
21658;BME280;10990;48.174;9.782;2023-04-27T11:47:38;95906.78;;;17.63;100.00
21658;BME280;10990;48.174;9.782;2023-04-27T11:50:08;95904.00;;;17.86;100.00
21658;BME280;10990;48.174;9.782;2023-04-27T11:52:36;95896.31;;;18.20;100.00
21658;BME280;10990;48.174;9.782;2023-04-27T11:55:05;95894.69;;;18.04;100.00
21658;BME280;10990;48.174;9.782;2023-04-27T11:57:34;95899.06;;;18.05;100.00
21658;BME280;10990;48.174;9.782;2023-04-27T12:00:03;95893.94;;;18.10;100.00
21658;BME280;10990;48.174;9.782;2023-04-27T12:02:39;95891.31;;;17.95;100.00
21658;BME280;10990;48.174;9.782;2023-04-27T12:05:08;95900.13;;;17.74;100.00
21658;BME280;10990;48.174;9.782;2023-04-27T12:07:36;95903.97;;;17.35;100.00
21658;BME280;10990;48.174;9.782;2023-04-27T12:10:03;95903.97;;;17.06;100.00
21658;BME280;10990;48.174;9.782;2023-04-27T12:12:31;95910.34;;;17.05;100.00
21658;BME280;10990;48.174;9.782;2023-04-27T12:14:57;95897.88;;;17.92;100.00
21658;BME280;10990;48.174;9.782;2023-04-27T12:17:24;95906.44;;;17.37;100.00
21658;BME280;10990;48.174;9.782;2023-04-27T12:19:51;95896.78;;;16.91;100.00
21658;BME280;10990;48.174;9.782;2023-04-27T12:22:19;95897.78;;;17.35;100.00
21658;BME280;10990;48.174;9.782;2023-04-27T12:24:46;95890.00;;;18.06;100.00
21658;BME280;10990;48.174;9.782;2023-04-27T12:27:12;95895.78;;;18.09;100.00
21658;BME280;10990;48.174;9.782;2023-04-27T12:29:39;95901.00;;;17.60;100.00
21658;BME280;10990;48.174;9.782;2023-04-27T12:32:06;95902.50;;;17.18;100.00
21658;BME280;10990;48.174;9.782;2023-04-27T12:34:33;95896.31;;;17.02;100.00
21658;BME280;10990;48.174;9.782;2023-04-27T12:37:00;95898.25;;;16.94;100.00
21658;BME280;10990;48.174;9.782;2023-04-27T12:39:28;95895.66;;;16.48;100.00
21658;BME280;10990;48.174;9.782;2023-04-27T12:41:55;95896.97;;;17.05;100.00
21658;BME280;10990;48.174;9.782;2023-04-27T12:44:22;95898.34;;;16.63;100.00
21658;BME280;10990;48.174;9.782;2023-04-27T12:46:49;95894.09;;;16.76;100.00
21658;BME280;10990;48.174;9.782;2023-04-27T12:49:16;95896.28;;;16.12;100.00
21658;BME280;10990;48.174;9.782;2023-04-27T12:51:43;95885.88;;;16.78;100.00
21658;BME280;10990;48.174;9.782;2023-04-27T12:54:10;95882.69;;;17.27;100.00
21658;BME280;10990;48.174;9.782;2023-04-27T12:56:38;95873.50;;;17.51;100.00
21658;BME280;10990;48.174;9.782;2023-04-27T12:59:06;95874.59;;;17.72;100.00
21658;BME280;10990;48.174;9.782;2023-04-27T13:01:33;95867.66;;;17.77;100.00